»·PEaware :: N447DM KRHV-KMRY

N447DM :: KRHV-KMRY

FLIGHT INFORMATION

Flight Status: Arrived
Operator: Privately registered:
United States
More flights under this callsign
Pilot: Terry G. (666)
Aircraft: BEECH AIRCRAFT TWIN BEECH
(BE18)
More flights by this aircraft type
Origin: KRHV Reid-Hillview
United States
Destination: KMRY Monterey Peninsula
United States
More flights between these airports :: More routes between these airports
Route: SNS
File this flight plan on PilotEdge
Remarks: Sample flight plan
Altitude:
(Current/Filed)
8,000ft
Speed:
(Current/Filed)
130kts
Departed: 16-Jul-12 09:41 PM
Arrived: 16-Jul-12 10:10 PM
Distance/Time
Traveled:
47nm/0:29
Distance/Time
To Go:
Arrived

Flight Plot

Page will automatically refresh every two minutes.


Map Options




Map Legend


Flown Route
Filed Route
Departure Airport
Arrival Airport
Navaid (VOR, NDB)
Fix

Horizontal Profiles

Position Reports

Time Latitude Longitude Heading Altitude Ground
Speed
16-Jul-12 21:13 37.335219 -121.817505 233 138ft 0kts
16-Jul-12 21:14 37.335219 -121.817505 233 138ft 0kts
16-Jul-12 21:15 37.335219 -121.817505 233 138ft 0kts
16-Jul-12 21:16 37.335219 -121.817505 233 138ft 0kts
16-Jul-12 21:17 37.335219 -121.817505 233 138ft 0kts
16-Jul-12 21:18 37.335219 -121.817505 233 138ft 0kts
16-Jul-12 21:19 37.335219 -121.817505 233 138ft 0kts
16-Jul-12 21:20 37.335219 -121.817505 233 138ft 0kts
16-Jul-12 21:21 37.335219 -121.817505 233 138ft 0kts
16-Jul-12 21:22 37.335219 -121.817505 233 138ft 0kts
16-Jul-12 21:23 37.335219 -121.817505 233 138ft 0kts
16-Jul-12 21:24 37.335219 -121.817505 233 138ft 0kts
16-Jul-12 21:25 37.335219 -121.817505 233 138ft 0kts
16-Jul-12 21:26 37.335219 -121.817505 233 138ft 0kts
16-Jul-12 21:27 37.335219 -121.817505 233 138ft 0kts
16-Jul-12 21:28 37.335219 -121.817505 233 138ft 0kts
16-Jul-12 21:29 37.335219 -121.817505 233 138ft 0kts
16-Jul-12 21:30 37.335219 -121.817505 233 138ft 0kts
16-Jul-12 21:31 37.335219 -121.817505 233 138ft 0kts
16-Jul-12 21:32 37.335219 -121.817505 233 138ft 0kts
16-Jul-12 21:33 37.335219 -121.817505 233 138ft 0kts
16-Jul-12 21:34 37.334448 -121.817599 146 138ft 8kts
16-Jul-12 21:35 37.331015 -121.814211 145 138ft 24kts
16-Jul-12 21:36 37.328861 -121.814301 237 138ft 20kts
16-Jul-12 21:37 37.328673 -121.815369 323 138ft 1kts
16-Jul-12 21:38 37.333323 -121.840196 217 699ft 129kts
16-Jul-12 21:39 37.296099 -121.832765 165 1375ft 150kts
16-Jul-12 21:40 37.254036 -121.817669 161 1822ft 157kts
16-Jul-12 21:41 37.212416 -121.801524 160 2400ft 158kts
16-Jul-12 21:42 37.171682 -121.783347 156 3020ft 155kts
16-Jul-12 21:43 37.130628 -121.764974 157 3665ft 156kts
16-Jul-12 21:44 37.089862 -121.746730 160 4268ft 153kts
16-Jul-12 21:45 37.049633 -121.728555 160 4777ft 154kts
16-Jul-12 21:46 37.009636 -121.710555 163 5387ft 151kts
16-Jul-12 21:47 36.969324 -121.693575 167 5963ft 152kts
16-Jul-12 21:48 36.926001 -121.679774 168 5994ft 166kts
16-Jul-12 21:49 36.879879 -121.667707 166 5971ft 171kts
16-Jul-12 21:50 36.833171 -121.656940 166 6007ft 170kts
16-Jul-12 21:51 36.793418 -121.648255 171 5986ft 169kts
16-Jul-12 21:52 36.746827 -121.637853 173 5993ft 172kts
16-Jul-12 21:53 36.706103 -121.608166 154 5994ft 170kts
16-Jul-12 21:54 36.673187 -121.591265 159 5990ft 171kts
16-Jul-12 21:55 36.628942 -121.573357 161 5994ft 170kts
16-Jul-12 21:56 36.584728 -121.556975 163 5989ft 170kts
16-Jul-12 21:57 36.542985 -121.541807 163 5990ft 171kts
16-Jul-12 21:58 36.497318 -121.525328 159 5984ft 170kts
16-Jul-12 21:59 36.479132 -121.555136 304 5456ft 174kts
16-Jul-12 22:00 36.504138 -121.603156 295 4711ft 178kts
16-Jul-12 22:01 36.521721 -121.652046 293 4187ft 152kts
16-Jul-12 22:02 36.537077 -121.697070 292 3306ft 135kts
16-Jul-12 22:03 36.551425 -121.739332 292 2507ft 125kts
16-Jul-12 22:04 36.565060 -121.779486 292 1794ft 132kts
16-Jul-12 22:05 36.579127 -121.821257 291 920ft 128kts
16-Jul-12 22:06 36.590072 -121.853494 293 262ft 42kts
16-Jul-12 22:07 36.590507 -121.856686 202 262ft 0kts
16-Jul-12 22:08 36.590220 -121.856889 188 262ft 5kts
16-Jul-12 22:09 36.588610 -121.848895 111 262ft 87kts
16-Jul-12 22:10 36.576733 -121.812588 115 954ft 151kts
16-Jul-12 22:11 36.559868 -121.768364 115 1562ft 135kts
16-Jul-12 22:12 36.561130 -121.723766 75 2163ft 133kts
16-Jul-12 22:13 36.571401 -121.679634 72 2761ft 132kts
16-Jul-12 22:14 36.582728 -121.636158 71 3360ft 132kts
16-Jul-12 22:15 36.591492 -121.603538 71 3802ft 151kts
16-Jul-12 22:16 36.605418 -121.552251 71 4412ft 159kts
16-Jul-12 22:17 36.619688 -121.499879 71 5014ft 159kts
16-Jul-12 22:18 36.633902 -121.447690 71 5613ft 158kts
16-Jul-12 22:19 36.648012 -121.395798 71 6212ft 157kts
16-Jul-12 22:20 36.661954 -121.344430 71 6811ft 155kts
16-Jul-12 22:21 36.675700 -121.293666 71 7408ft 154kts

Navigation Log

Ident Type
Flight plan parsing failed, navigation log unavailable